createdAt,value
2019-06-26T00:04:03.847Z,27.20
2019-06-26T00:14:27.180Z,27.10
2019-06-26T00:24:50.136Z,27.00
2019-06-26T00:35:13.274Z,26.80
2019-06-26T00:45:36.116Z,26.70
2019-06-26T00:55:59.487Z,26.60
2019-06-26T01:06:40.767Z,26.40
2019-06-26T01:17:03.380Z,26.30
2019-06-26T01:27:26.612Z,26.20
2019-06-26T01:37:49.976Z,26.10
2019-06-26T01:48:12.847Z,26.00
2019-06-26T01:58:36.069Z,25.90
2019-06-26T02:08:58.741Z,25.70
2019-06-26T02:19:21.703Z,25.60
2019-06-26T02:29:45.291Z,25.60
2019-06-26T02:40:10.162Z,25.40
2019-06-26T02:50:32.835Z,25.30
2019-06-26T03:00:56.468Z,25.10
2019-06-26T03:11:19.279Z,25.10
2019-06-26T03:21:42.870Z,25.00
2019-06-26T03:32:05.321Z,25.10
2019-06-26T03:42:27.660Z,25.00
2019-06-26T03:52:50.577Z,25.10
2019-06-26T04:03:13.671Z,25.20
2019-06-26T04:13:36.747Z,25.30
2019-06-26T04:23:59.187Z,25.30
2019-06-26T04:34:22.275Z,25.50
2019-06-26T04:44:45.308Z,25.60
2019-06-26T04:55:09.034Z,25.80
2019-06-26T05:05:39.385Z,26.00
2019-06-26T05:15:56.760Z,26.10
2019-06-26T05:26:19.457Z,26.20
2019-06-26T05:36:42.274Z,26.40
2019-06-26T05:47:07.246Z,26.60
2019-06-26T05:57:29.596Z,26.80
2019-06-26T06:07:53.164Z,27.00
2019-06-26T06:18:16.651Z,27.40
2019-06-26T06:28:40.093Z,27.70
2019-06-26T06:39:03.263Z,28.10
2019-06-26T06:49:26.092Z,28.50
2019-06-26T06:59:49.177Z,28.90
2019-06-26T07:10:12.082Z,29.30
2019-06-26T07:20:34.890Z,29.70
2019-06-26T07:30:57.791Z,30.20
2019-06-26T07:41:20.594Z,30.50
2019-06-26T07:51:43.728Z,30.80
2019-06-26T08:02:06.863Z,31.10
2019-06-26T08:12:29.782Z,31.40
2019-06-26T08:22:52.469Z,31.70
2019-06-26T08:33:16.175Z,32.00
2019-06-26T08:43:40.697Z,32.30
2019-06-26T08:54:04.985Z,32.50
2019-06-26T09:04:28.724Z,32.70
2019-06-26T09:14:52.069Z,33.10
2019-06-26T09:25:22.064Z,33.30
2019-06-26T09:35:39.772Z,33.70
2019-06-26T09:46:03.061Z,34.00
2019-06-26T09:56:26.374Z,34.20
2019-06-26T10:06:50.134Z,34.60
2019-06-26T10:17:13.771Z,34.90
2019-06-26T10:27:36.633Z,35.30
2019-06-26T10:38:00.283Z,35.90
2019-06-26T10:48:23.787Z,37.10
2019-06-26T10:58:47.820Z,38.20
2019-06-26T11:09:10.686Z,39.30
2019-06-26T11:19:43.779Z,40.00
2019-06-26T11:29:58.981Z,40.90
2019-06-26T11:40:22.319Z,41.50
2019-06-26T11:50:44.747Z,42.30
2019-06-26T12:01:07.344Z,42.80
2019-06-26T12:11:29.890Z,43.20
2019-06-26T12:21:52.769Z,43.40
2019-06-26T12:32:15.903Z,43.70
2019-06-26T12:42:38.334Z,43.80
2019-06-26T12:53:01.244Z,43.50
2019-06-26T13:03:24.498Z,43.50
2019-06-26T13:14:01.463Z,43.10
2019-06-26T13:24:11.800Z,42.40
2019-06-26T13:34:34.772Z,42.50
2019-06-26T13:44:57.906Z,42.50
2019-06-26T13:55:21.899Z,42.50
2019-06-26T14:05:44.993Z,42.40
2019-06-26T14:16:08.612Z,42.40
2019-06-26T14:26:31.238Z,42.20
2019-06-26T14:36:54.211Z,42.20
2019-06-26T14:47:17.225Z,42.20
2019-06-26T14:57:40.335Z,41.90
2019-06-26T15:08:03.595Z,41.90
2019-06-26T15:18:26.676Z,41.90
2019-06-26T15:28:50.211Z,41.90
2019-06-26T15:39:13.457Z,41.80
2019-06-26T15:49:36.360Z,41.90
2019-06-26T15:59:59.516Z,41.70
2019-06-26T16:10:23.019Z,41.40
2019-06-26T16:20:46.184Z,41.20
2019-06-26T16:31:08.812Z,40.90
2019-06-26T16:41:31.857Z,40.60
2019-06-26T16:51:55.594Z,40.60
2019-06-26T17:02:19.611Z,40.40
2019-06-26T17:12:42.878Z,40.20
2019-06-26T17:23:06.752Z,39.90
2019-06-26T17:33:30.447Z,39.20
2019-06-26T17:43:53.455Z,38.70
2019-06-26T17:54:16.854Z,38.30
2019-06-26T18:04:40.360Z,38.00
2019-06-26T18:15:04.562Z,37.50
2019-06-26T18:25:28.452Z,37.20
2019-06-26T18:35:52.164Z,36.70
2019-06-26T18:46:15.803Z,36.40
2019-06-26T18:56:38.790Z,36.20
2019-06-26T19:07:02.477Z,35.90
2019-06-26T19:17:26.573Z,35.50
2019-06-26T19:27:50.066Z,35.10
2019-06-26T19:38:13.522Z,34.80
2019-06-26T19:48:44.657Z,34.40
2019-06-26T19:59:07.601Z,34.10
2019-06-26T20:09:31.232Z,33.90
2019-06-26T20:19:54.213Z,33.50
2019-06-26T20:30:19.644Z,33.00
2019-06-26T20:40:45.754Z,32.60
2019-06-26T20:51:08.473Z,32.40
2019-06-26T21:01:31.131Z,32.00
2019-06-26T21:11:54.449Z,31.80
2019-06-26T21:22:17.461Z,31.40
2019-06-26T21:32:40.171Z,31.30
2019-06-26T21:43:03.115Z,31.10
2019-06-26T21:53:25.734Z,30.90
2019-06-26T22:03:49.167Z,30.60
2019-06-26T22:14:14.285Z,30.40
2019-06-26T22:24:37.079Z,30.10
2019-06-26T22:35:00.439Z,29.90
2019-06-26T22:45:23.742Z,29.70
2019-06-26T22:55:46.436Z,29.50
2019-06-26T23:06:08.891Z,29.30
2019-06-26T23:16:32.041Z,29.10
2019-06-26T23:26:54.806Z,29.00
2019-06-26T23:37:17.874Z,28.70
2019-06-26T23:47:40.747Z,28.60
2019-06-26T23:58:03.822Z,28.40
